Airfield :
LOGIN :

Register | Disclaimer

   EN    FR    IT 

 










Legend :    VFR   Marginal VFR   IFR   Intensive IFR   Very Intensive IFR
Visi :
Ceiling :
>= 8 km
>= 3000ft
5 to 8 km
1000 to 3000 ft
1500m to 5 km
500 to 1000 ft
800 to 1500m
200 to 500 ft
< 800m
< 200 ft
Symbols :   Thunderstorms  Fog  Heavy snow  Heavy precipitations  Wind > 20 kt
SIGMETs :     Misc.  Thunderstorms  Icing  Turbulence  Mountain Waves  Volcanic Ashes






- Airport Elevation : 0 ft


ETEB - Ansbach Army Heliport

CURRENT METAR :
  • 281756Z AUTO 04009KT 9999 SCT070 17/00 A3034 RMK AO2 SLP282 T01671005 10187 20166 55002 $

EXPIRED METARs :
  • 281656Z AUTO 02010G17KT 9999 FEW075 18/00 A3033 RMK AO2 SLP277 T01751003 $
  • 281556Z AUTO 36011KT 9999 FEW070 18/00 A3034 RMK AO2 SLP282 T01780004 $

TAF TAF ETEB
Valid from the 28 at 09:00 until the 29 at 15:00 UTC


280900Z 2809/2915 04009KT 9999 BKN025 QNH3039INS
BECMG 2811/2812 02009KT 9999 SCT065 QNH3036INS
TEMPO 2812/2817 02012G18KT
BECMG 2822/2823 06006KT 9999 BKN045 QNH3038INS
BECMG 2907/2908 06010G15KT 8000 -SHRA BKN025 QNH3030INS TX17/2813Z TN07/2904Z



MET'MAP, your aeronautical weather chart ! - Copyright ORBIFLY December 2007 - Disclaimer

ORBIFLY MET'MAP TEAM :

Programming & Development : Alexandra Zaïnal
Concept & original design : Baudouin d'Aumeries
Assistance for programming : Marc-Olivier Méhu
Technical & hardware support : Manuel Goepfert

Contact : metmap@orbifly.com




SOURCES & CREDITS :

   NOAA